sensor_id;sensor_type;location;lat;lon;timestamp;P1;durP1;ratioP1;P2;durP2;ratioP2
70675;SDS011;59069;52.242;20.900;2023-06-14T00:00:17;13.47;;;6.33;;
70675;SDS011;59069;52.242;20.900;2023-06-14T00:02:43;12.10;;;5.90;;
70675;SDS011;59069;52.242;20.900;2023-06-14T00:05:08;11.32;;;5.60;;
70675;SDS011;59069;52.242;20.900;2023-06-14T00:07:35;10.93;;;5.20;;
70675;SDS011;59069;52.242;20.900;2023-06-14T00:10:03;13.93;;;5.78;;
70675;SDS011;59069;52.242;20.900;2023-06-14T00:12:30;10.83;;;5.40;;
70675;SDS011;59069;52.242;20.900;2023-06-14T00:14:56;13.52;;;5.80;;
70675;SDS011;59069;52.242;20.900;2023-06-14T00:17:22;11.55;;;5.70;;
70675;SDS011;59069;52.242;20.900;2023-06-14T00:19:48;10.67;;;5.70;;
70675;SDS011;59069;52.242;20.900;2023-06-14T00:22:13;10.85;;;5.65;;
70675;SDS011;59069;52.242;20.900;2023-06-14T00:24:39;11.33;;;5.73;;
70675;SDS011;59069;52.242;20.900;2023-06-14T00:27:04;11.82;;;5.47;;
70675;SDS011;59069;52.242;20.900;2023-06-14T00:29:30;14.37;;;6.07;;
70675;SDS011;59069;52.242;20.900;2023-06-14T00:31:55;12.83;;;5.90;;
70675;SDS011;59069;52.242;20.900;2023-06-14T00:34:21;11.20;;;5.38;;
70675;SDS011;59069;52.242;20.900;2023-06-14T00:36:46;12.37;;;5.57;;
70675;SDS011;59069;52.242;20.900;2023-06-14T00:39:12;11.67;;;5.53;;
70675;SDS011;59069;52.242;20.900;2023-06-14T00:41:37;10.50;;;5.23;;
70675;SDS011;59069;52.242;20.900;2023-06-14T00:44:03;11.80;;;5.18;;
70675;SDS011;59069;52.242;20.900;2023-06-14T00:46:29;10.85;;;5.53;;
70675;SDS011;59069;52.242;20.900;2023-06-14T00:48:55;10.57;;;5.03;;
70675;SDS011;59069;52.242;20.900;2023-06-14T00:51:22;12.00;;;5.53;;
70675;SDS011;59069;52.242;20.900;2023-06-14T00:53:47;12.17;;;5.17;;
70675;SDS011;59069;52.242;20.900;2023-06-14T00:56:13;12.07;;;5.73;;
70675;SDS011;59069;52.242;20.900;2023-06-14T00:58:40;9.93;;;5.35;;
70675;SDS011;59069;52.242;20.900;2023-06-14T01:01:06;10.82;;;5.22;;
70675;SDS011;59069;52.242;20.900;2023-06-14T01:03:32;10.53;;;6.13;;
70675;SDS011;59069;52.242;20.900;2023-06-14T01:11:41;11.50;;;5.53;;
70675;SDS011;59069;52.242;20.900;2023-06-14T01:14:28;10.00;;;4.87;;
70675;SDS011;59069;52.242;20.900;2023-06-14T01:16:56;10.18;;;4.53;;
70675;SDS011;59069;52.242;20.900;2023-06-14T01:19:25;9.93;;;5.00;;
70675;SDS011;59069;52.242;20.900;2023-06-14T01:21:53;12.55;;;5.00;;
70675;SDS011;59069;52.242;20.900;2023-06-14T01:24:21;11.45;;;5.03;;
70675;SDS011;59069;52.242;20.900;2023-06-14T01:26:51;9.63;;;5.20;;
70675;SDS011;59069;52.242;20.900;2023-06-14T01:29:21;9.02;;;4.43;;
70675;SDS011;59069;52.242;20.900;2023-06-14T01:31:49;11.02;;;5.00;;
70675;SDS011;59069;52.242;20.900;2023-06-14T01:34:15;9.45;;;5.18;;
70675;SDS011;59069;52.242;20.900;2023-06-14T01:36:41;10.53;;;4.90;;
70675;SDS011;59069;52.242;20.900;2023-06-14T01:39:11;11.40;;;5.00;;
70675;SDS011;59069;52.242;20.900;2023-06-14T01:41:40;10.70;;;5.30;;
70675;SDS011;59069;52.242;20.900;2023-06-14T01:44:06;12.10;;;5.35;;
70675;SDS011;59069;52.242;20.900;2023-06-14T01:46:31;10.93;;;5.80;;
70675;SDS011;59069;52.242;20.900;2023-06-14T01:48:57;11.98;;;5.80;;
70675;SDS011;59069;52.242;20.900;2023-06-14T01:51:23;10.48;;;5.65;;
70675;SDS011;59069;52.242;20.900;2023-06-14T01:53:49;11.83;;;5.47;;
70675;SDS011;59069;52.242;20.900;2023-06-14T01:56:15;10.83;;;5.27;;
70675;SDS011;59069;52.242;20.900;2023-06-14T01:58:41;12.02;;;5.88;;
70675;SDS011;59069;52.242;20.900;2023-06-14T02:01:06;11.93;;;5.68;;
70675;SDS011;59069;52.242;20.900;2023-06-14T02:03:32;13.23;;;5.00;;
70675;SDS011;59069;52.242;20.900;2023-06-14T02:05:58;10.13;;;5.10;;
70675;SDS011;59069;52.242;20.900;2023-06-14T02:08:23;11.00;;;5.10;;
70675;SDS011;59069;52.242;20.900;2023-06-14T02:10:49;11.35;;;5.20;;
70675;SDS011;59069;52.242;20.900;2023-06-14T02:13:14;11.67;;;5.23;;
70675;SDS011;59069;52.242;20.900;2023-06-14T02:15:40;13.47;;;5.63;;
70675;SDS011;59069;52.242;20.900;2023-06-14T02:18:08;10.25;;;5.15;;
70675;SDS011;59069;52.242;20.900;2023-06-14T02:20:35;8.80;;;4.72;;
70675;SDS011;59069;52.242;20.900;2023-06-14T02:23:00;10.77;;;5.30;;
70675;SDS011;59069;52.242;20.900;2023-06-14T02:25:26;10.40;;;5.27;;
70675;SDS011;59069;52.242;20.900;2023-06-14T02:27:55;11.25;;;5.40;;
70675;SDS011;59069;52.242;20.900;2023-06-14T02:30:20;11.45;;;5.75;;
70675;SDS011;59069;52.242;20.900;2023-06-14T02:32:47;10.02;;;5.65;;
70675;SDS011;59069;52.242;20.900;2023-06-14T02:35:13;11.33;;;5.27;;
70675;SDS011;59069;52.242;20.900;2023-06-14T02:37:39;12.32;;;5.68;;
70675;SDS011;59069;52.242;20.900;2023-06-14T02:40:05;10.48;;;5.35;;
70675;SDS011;59069;52.242;20.900;2023-06-14T02:42:31;11.33;;;5.90;;
70675;SDS011;59069;52.242;20.900;2023-06-14T02:44:57;10.77;;;5.30;;
70675;SDS011;59069;52.242;20.900;2023-06-14T02:47:22;11.50;;;5.17;;
70675;SDS011;59069;52.242;20.900;2023-06-14T02:49:47;10.70;;;5.90;;
70675;SDS011;59069;52.242;20.900;2023-06-14T02:52:13;13.40;;;5.50;;
70675;SDS011;59069;52.242;20.900;2023-06-14T02:54:39;13.17;;;5.87;;
70675;SDS011;59069;52.242;20.900;2023-06-14T02:57:05;10.57;;;5.50;;
70675;SDS011;59069;52.242;20.900;2023-06-14T02:59:32;11.45;;;5.88;;
70675;SDS011;59069;52.242;20.900;2023-06-14T03:01:57;10.90;;;6.00;;
70675;SDS011;59069;52.242;20.900;2023-06-14T03:04:23;9.77;;;5.80;;
70675;SDS011;59069;52.242;20.900;2023-06-14T03:06:50;10.20;;;5.20;;
70675;SDS011;59069;52.242;20.900;2023-06-14T03:09:16;10.73;;;6.23;;
70675;SDS011;59069;52.242;20.900;2023-06-14T03:11:42;10.43;;;5.78;;
70675;SDS011;59069;52.242;20.900;2023-06-14T03:14:08;12.03;;;6.17;;
70675;SDS011;59069;52.242;20.900;2023-06-14T03:16:33;12.13;;;5.82;;
70675;SDS011;59069;52.242;20.900;2023-06-14T03:19:00;13.43;;;5.30;;
70675;SDS011;59069;52.242;20.900;2023-06-14T03:21:25;12.05;;;5.55;;
70675;SDS011;59069;52.242;20.900;2023-06-14T03:23:53;10.37;;;5.07;;
70675;SDS011;59069;52.242;20.900;2023-06-14T03:26:19;11.00;;;6.05;;
70675;SDS011;59069;52.242;20.900;2023-06-14T03:28:45;11.00;;;5.18;;
70675;SDS011;59069;52.242;20.900;2023-06-14T03:31:12;13.70;;;5.63;;
70675;SDS011;59069;52.242;20.900;2023-06-14T03:33:38;11.55;;;5.53;;
70675;SDS011;59069;52.242;20.900;2023-06-14T03:36:04;10.70;;;5.38;;
70675;SDS011;59069;52.242;20.900;2023-06-14T03:38:30;12.60;;;5.60;;
70675;SDS011;59069;52.242;20.900;2023-06-14T03:40:55;10.47;;;5.20;;
70675;SDS011;59069;52.242;20.900;2023-06-14T03:43:21;11.47;;;5.83;;
70675;SDS011;59069;52.242;20.900;2023-06-14T03:45:46;12.38;;;5.82;;
70675;SDS011;59069;52.242;20.900;2023-06-14T03:48:12;12.90;;;6.10;;
70675;SDS011;59069;52.242;20.900;2023-06-14T03:50:37;9.47;;;5.27;;
70675;SDS011;59069;52.242;20.900;2023-06-14T03:53:05;10.90;;;5.32;;
70675;SDS011;59069;52.242;20.900;2023-06-14T03:55:31;11.73;;;5.97;;
70675;SDS011;59069;52.242;20.900;2023-06-14T03:57:58;10.73;;;5.80;;
70675;SDS011;59069;52.242;20.900;2023-06-14T04:00:23;11.67;;;6.20;;
70675;SDS011;59069;52.242;20.900;2023-06-14T04:02:49;12.33;;;5.70;;
70675;SDS011;59069;52.242;20.900;2023-06-14T04:05:15;10.70;;;5.80;;
70675;SDS011;59069;52.242;20.900;2023-06-14T04:07:41;11.52;;;6.00;;
70675;SDS011;59069;52.242;20.900;2023-06-14T04:10:09;10.77;;;5.93;;
70675;SDS011;59069;52.242;20.900;2023-06-14T04:12:35;11.95;;;5.55;;
70675;SDS011;59069;52.242;20.900;2023-06-14T04:15:01;11.47;;;5.50;;
70675;SDS011;59069;52.242;20.900;2023-06-14T04:17:27;10.98;;;6.30;;
70675;SDS011;59069;52.242;20.900;2023-06-14T04:19:52;13.73;;;7.03;;
70675;SDS011;59069;52.242;20.900;2023-06-14T04:22:17;12.05;;;6.78;;
70675;SDS011;59069;52.242;20.900;2023-06-14T04:24:43;10.90;;;6.53;;
70675;SDS011;59069;52.242;20.900;2023-06-14T04:27:09;12.77;;;6.32;;
70675;SDS011;59069;52.242;20.900;2023-06-14T04:29:35;11.40;;;6.00;;
70675;SDS011;59069;52.242;20.900;2023-06-14T04:32:01;10.13;;;5.68;;
70675;SDS011;59069;52.242;20.900;2023-06-14T04:34:26;10.40;;;6.00;;
70675;SDS011;59069;52.242;20.900;2023-06-14T04:36:57;14.20;;;5.88;;
70675;SDS011;59069;52.242;20.900;2023-06-14T04:39:24;9.98;;;6.25;;
70675;SDS011;59069;52.242;20.900;2023-06-14T04:41:51;11.52;;;6.40;;
70675;SDS011;59069;52.242;20.900;2023-06-14T04:44:18;12.73;;;6.63;;
70675;SDS011;59069;52.242;20.900;2023-06-14T04:46:44;10.55;;;5.93;;
70675;SDS011;59069;52.242;20.900;2023-06-14T04:49:17;9.73;;;6.00;;
70675;SDS011;59069;52.242;20.900;2023-06-14T04:51:43;11.57;;;6.53;;
70675;SDS011;59069;52.242;20.900;2023-06-14T04:54:10;12.27;;;6.68;;
70675;SDS011;59069;52.242;20.900;2023-06-14T04:56:38;13.33;;;6.40;;
70675;SDS011;59069;52.242;20.900;2023-06-14T04:59:04;12.70;;;6.18;;
70675;SDS011;59069;52.242;20.900;2023-06-14T05:01:30;10.57;;;6.43;;
70675;SDS011;59069;52.242;20.900;2023-06-14T05:03:59;10.18;;;6.15;;
70675;SDS011;59069;52.242;20.900;2023-06-14T05:06:25;12.35;;;6.82;;
70675;SDS011;59069;52.242;20.900;2023-06-14T05:08:52;12.88;;;6.57;;
70675;SDS011;59069;52.242;20.900;2023-06-14T05:11:18;10.73;;;6.20;;
70675;SDS011;59069;52.242;20.900;2023-06-14T05:13:44;10.60;;;6.65;;
70675;SDS011;59069;52.242;20.900;2023-06-14T05:16:10;11.20;;;6.23;;
70675;SDS011;59069;52.242;20.900;2023-06-14T05:18:36;11.80;;;6.68;;
70675;SDS011;59069;52.242;20.900;2023-06-14T05:21:02;13.10;;;6.18;;
70675;SDS011;59069;52.242;20.900;2023-06-14T05:23:29;12.07;;;6.35;;
70675;SDS011;59069;52.242;20.900;2023-06-14T05:25:55;13.80;;;7.27;;
70675;SDS011;59069;52.242;20.900;2023-06-14T05:28:21;12.75;;;7.50;;
70675;SDS011;59069;52.242;20.900;2023-06-14T05:30:47;13.55;;;7.93;;
70675;SDS011;59069;52.242;20.900;2023-06-14T05:33:13;11.67;;;5.97;;
70675;SDS011;59069;52.242;20.900;2023-06-14T05:35:38;11.20;;;6.20;;
70675;SDS011;59069;52.242;20.900;2023-06-14T05:38:03;11.70;;;6.93;;
70675;SDS011;59069;52.242;20.900;2023-06-14T05:40:29;11.80;;;6.35;;
70675;SDS011;59069;52.242;20.900;2023-06-14T05:42:54;12.20;;;6.57;;
70675;SDS011;59069;52.242;20.900;2023-06-14T05:45:20;11.27;;;6.23;;
70675;SDS011;59069;52.242;20.900;2023-06-14T05:47:46;10.85;;;6.22;;
70675;SDS011;59069;52.242;20.900;2023-06-14T05:50:11;11.57;;;6.60;;
70675;SDS011;59069;52.242;20.900;2023-06-14T05:52:36;11.50;;;6.80;;
70675;SDS011;59069;52.242;20.900;2023-06-14T05:55:02;12.48;;;7.28;;
70675;SDS011;59069;52.242;20.900;2023-06-14T05:57:29;13.53;;;7.00;;
70675;SDS011;59069;52.242;20.900;2023-06-14T05:59:54;11.82;;;6.72;;
70675;SDS011;59069;52.242;20.900;2023-06-14T06:02:20;11.37;;;6.60;;
70675;SDS011;59069;52.242;20.900;2023-06-14T06:04:45;10.98;;;6.25;;
70675;SDS011;59069;52.242;20.900;2023-06-14T06:07:11;13.37;;;7.03;;
70675;SDS011;59069;52.242;20.900;2023-06-14T06:09:36;14.20;;;6.70;;
70675;SDS011;59069;52.242;20.900;2023-06-14T06:12:02;11.83;;;6.47;;
70675;SDS011;59069;52.242;20.900;2023-06-14T06:14:27;14.38;;;7.47;;
70675;SDS011;59069;52.242;20.900;2023-06-14T06:16:53;14.60;;;7.37;;
70675;SDS011;59069;52.242;20.900;2023-06-14T06:19:19;13.88;;;6.43;;
70675;SDS011;59069;52.242;20.900;2023-06-14T06:21:45;13.33;;;6.80;;
70675;SDS011;59069;52.242;20.900;2023-06-14T06:24:10;11.77;;;6.72;;
70675;SDS011;59069;52.242;20.900;2023-06-14T06:26:36;15.70;;;7.50;;
70675;SDS011;59069;52.242;20.900;2023-06-14T06:29:02;12.10;;;6.15;;
70675;SDS011;59069;52.242;20.900;2023-06-14T06:31:27;11.10;;;6.37;;
70675;SDS011;59069;52.242;20.900;2023-06-14T06:33:56;11.10;;;6.33;;
70675;SDS011;59069;52.242;20.900;2023-06-14T06:36:21;11.63;;;6.90;;
70675;SDS011;59069;52.242;20.900;2023-06-14T06:38:47;11.10;;;6.40;;
70675;SDS011;59069;52.242;20.900;2023-06-14T06:41:13;11.27;;;6.03;;
70675;SDS011;59069;52.242;20.900;2023-06-14T06:43:39;10.55;;;6.13;;
70675;SDS011;59069;52.242;20.900;2023-06-14T06:46:04;13.17;;;6.13;;
70675;SDS011;59069;52.242;20.900;2023-06-14T06:48:29;12.93;;;5.78;;
70675;SDS011;59069;52.242;20.900;2023-06-14T06:50:55;13.70;;;6.37;;
70675;SDS011;59069;52.242;20.900;2023-06-14T06:53:21;12.20;;;6.10;;
70675;SDS011;59069;52.242;20.900;2023-06-14T06:55:47;11.77;;;5.80;;
70675;SDS011;59069;52.242;20.900;2023-06-14T06:58:13;10.80;;;6.10;;
70675;SDS011;59069;52.242;20.900;2023-06-14T07:00:38;10.88;;;6.10;;
70675;SDS011;59069;52.242;20.900;2023-06-14T07:03:04;9.82;;;5.60;;
70675;SDS011;59069;52.242;20.900;2023-06-14T07:05:30;9.17;;;5.33;;
70675;SDS011;59069;52.242;20.900;2023-06-14T07:07:55;16.30;;;7.60;;
70675;SDS011;59069;52.242;20.900;2023-06-14T07:10:21;11.55;;;7.32;;
70675;SDS011;59069;52.242;20.900;2023-06-14T07:12:46;11.40;;;6.77;;
70675;SDS011;59069;52.242;20.900;2023-06-14T07:15:12;10.67;;;6.63;;
70675;SDS011;59069;52.242;20.900;2023-06-14T07:17:37;11.82;;;6.40;;
70675;SDS011;59069;52.242;20.900;2023-06-14T07:20:03;13.07;;;7.60;;
70675;SDS011;59069;52.242;20.900;2023-06-14T07:22:42;11.23;;;6.80;;
70675;SDS011;59069;52.242;20.900;2023-06-14T07:25:11;12.57;;;6.88;;
70675;SDS011;59069;52.242;20.900;2023-06-14T07:27:39;9.70;;;5.50;;
70675;SDS011;59069;52.242;20.900;2023-06-14T07:30:06;13.48;;;7.13;;
70675;SDS011;59069;52.242;20.900;2023-06-14T07:32:32;11.98;;;6.72;;
70675;SDS011;59069;52.242;20.900;2023-06-14T07:34:57;13.63;;;6.40;;
70675;SDS011;59069;52.242;20.900;2023-06-14T07:37:23;12.00;;;7.00;;
70675;SDS011;59069;52.242;20.900;2023-06-14T07:39:48;11.90;;;6.87;;
70675;SDS011;59069;52.242;20.900;2023-06-14T07:42:14;15.87;;;6.40;;
70675;SDS011;59069;52.242;20.900;2023-06-14T07:44:39;13.70;;;7.50;;
70675;SDS011;59069;52.242;20.900;2023-06-14T07:47:05;13.02;;;6.60;;
70675;SDS011;59069;52.242;20.900;2023-06-14T07:49:30;10.17;;;6.13;;
70675;SDS011;59069;52.242;20.900;2023-06-14T07:51:56;11.70;;;6.75;;
70675;SDS011;59069;52.242;20.900;2023-06-14T07:54:21;12.27;;;6.77;;
70675;SDS011;59069;52.242;20.900;2023-06-14T07:56:51;13.85;;;6.65;;
70675;SDS011;59069;52.242;20.900;2023-06-14T07:59:17;10.70;;;6.80;;
70675;SDS011;59069;52.242;20.900;2023-06-14T08:01:43;11.95;;;6.22;;
70675;SDS011;59069;52.242;20.900;2023-06-14T08:04:12;10.02;;;5.95;;
70675;SDS011;59069;52.242;20.900;2023-06-14T08:06:38;10.95;;;5.43;;
70675;SDS011;59069;52.242;20.900;2023-06-14T08:09:04;9.30;;;4.73;;
70675;SDS011;59069;52.242;20.900;2023-06-14T08:11:30;9.43;;;4.90;;
70675;SDS011;59069;52.242;20.900;2023-06-14T08:13:56;9.37;;;5.83;;
70675;SDS011;59069;52.242;20.900;2023-06-14T08:16:21;10.40;;;5.47;;
70675;SDS011;59069;52.242;20.900;2023-06-14T08:18:47;11.00;;;5.50;;
70675;SDS011;59069;52.242;20.900;2023-06-14T08:21:12;10.07;;;6.07;;
70675;SDS011;59069;52.242;20.900;2023-06-14T08:23:40;12.30;;;5.22;;
70675;SDS011;59069;52.242;20.900;2023-06-14T08:26:07;10.55;;;5.35;;
70675;SDS011;59069;52.242;20.900;2023-06-14T08:28:33;29.20;;;20.40;;
70675;SDS011;59069;52.242;20.900;2023-06-14T08:30:59;16.25;;;8.55;;
70675;SDS011;59069;52.242;20.900;2023-06-14T08:33:24;12.57;;;6.30;;
70675;SDS011;59069;52.242;20.900;2023-06-14T08:35:50;12.20;;;5.10;;
70675;SDS011;59069;52.242;20.900;2023-06-14T08:38:15;12.70;;;5.90;;
70675;SDS011;59069;52.242;20.900;2023-06-14T08:40:41;9.47;;;5.10;;
70675;SDS011;59069;52.242;20.900;2023-06-14T08:43:07;15.77;;;5.47;;
70675;SDS011;59069;52.242;20.900;2023-06-14T08:45:32;13.03;;;6.07;;
70675;SDS011;59069;52.242;20.900;2023-06-14T08:47:58;11.55;;;4.75;;
70675;SDS011;59069;52.242;20.900;2023-06-14T08:50:25;11.10;;;5.07;;
70675;SDS011;59069;52.242;20.900;2023-06-14T08:52:55;9.32;;;4.82;;
70675;SDS011;59069;52.242;20.900;2023-06-14T08:55:23;10.53;;;4.77;;
70675;SDS011;59069;52.242;20.900;2023-06-14T08:57:53;10.80;;;4.60;;
70675;SDS011;59069;52.242;20.900;2023-06-14T09:00:20;10.25;;;4.80;;
70675;SDS011;59069;52.242;20.900;2023-06-14T09:02:46;9.13;;;4.97;;
70675;SDS011;59069;52.242;20.900;2023-06-14T09:05:12;11.05;;;5.25;;
70675;SDS011;59069;52.242;20.900;2023-06-14T09:07:41;10.57;;;5.13;;
70675;SDS011;59069;52.242;20.900;2023-06-14T09:10:16;10.52;;;5.75;;
70675;SDS011;59069;52.242;20.900;2023-06-14T09:12:42;9.68;;;5.25;;
70675;SDS011;59069;52.242;20.900;2023-06-14T09:15:08;10.70;;;4.78;;
70675;SDS011;59069;52.242;20.900;2023-06-14T09:17:35;11.45;;;5.60;;
70675;SDS011;59069;52.242;20.900;2023-06-14T09:20:02;10.53;;;5.37;;
70675;SDS011;59069;52.242;20.900;2023-06-14T09:22:31;14.27;;;5.68;;
70675;SDS011;59069;52.242;20.900;2023-06-14T09:24:59;8.80;;;5.30;;
70675;SDS011;59069;52.242;20.900;2023-06-14T09:27:25;11.55;;;5.85;;
70675;SDS011;59069;52.242;20.900;2023-06-14T09:29:52;12.73;;;4.90;;
70675;SDS011;59069;52.242;20.900;2023-06-14T09:32:17;10.02;;;5.18;;
70675;SDS011;59069;52.242;20.900;2023-06-14T09:34:43;10.07;;;5.40;;
70675;SDS011;59069;52.242;20.900;2023-06-14T09:37:10;10.80;;;5.93;;
70675;SDS011;59069;52.242;20.900;2023-06-14T09:39:35;13.70;;;7.43;;
70675;SDS011;59069;52.242;20.900;2023-06-14T09:42:18;14.37;;;7.07;;
70675;SDS011;59069;52.242;20.900;2023-06-14T09:44:47;11.65;;;6.35;;
70675;SDS011;59069;52.242;20.900;2023-06-14T09:47:14;9.48;;;5.15;;
70675;SDS011;59069;52.242;20.900;2023-06-14T09:49:40;11.68;;;4.30;;
70675;SDS011;59069;52.242;20.900;2023-06-14T09:52:07;14.00;;;5.35;;
70675;SDS011;59069;52.242;20.900;2023-06-14T09:54:39;10.77;;;5.33;;
70675;SDS011;59069;52.242;20.900;2023-06-14T09:57:08;9.90;;;4.93;;
70675;SDS011;59069;52.242;20.900;2023-06-14T09:59:36;10.60;;;4.97;;
70675;SDS011;59069;52.242;20.900;2023-06-14T10:02:07;9.32;;;4.47;;
70675;SDS011;59069;52.242;20.900;2023-06-14T10:05:06;9.57;;;4.50;;
70675;SDS011;59069;52.242;20.900;2023-06-14T10:07:53;9.20;;;4.37;;
70675;SDS011;59069;52.242;20.900;2023-06-14T10:10:21;8.45;;;3.60;;
70675;SDS011;59069;52.242;20.900;2023-06-14T10:12:47;9.00;;;3.60;;
70675;SDS011;59069;52.242;20.900;2023-06-14T10:15:35;13.05;;;4.22;;
70675;SDS011;59069;52.242;20.900;2023-06-14T10:23:34;10.63;;;4.55;;
70675;SDS011;59069;52.242;20.900;2023-06-14T10:26:03;11.20;;;4.20;;
70675;SDS011;59069;52.242;20.900;2023-06-14T10:28:28;8.77;;;4.70;;
70675;SDS011;59069;52.242;20.900;2023-06-14T10:31:02;9.50;;;4.22;;
70675;SDS011;59069;52.242;20.900;2023-06-14T10:33:35;9.45;;;3.70;;
70675;SDS011;59069;52.242;20.900;2023-06-14T10:41:36;8.40;;;3.97;;
70675;SDS011;59069;52.242;20.900;2023-06-14T10:46:37;10.15;;;4.63;;
70675;SDS011;59069;52.242;20.900;2023-06-14T10:49:03;8.33;;;3.73;;
70675;SDS011;59069;52.242;20.900;2023-06-14T10:51:30;7.25;;;3.95;;
70675;SDS011;59069;52.242;20.900;2023-06-14T10:54:18;8.43;;;4.10;;
70675;SDS011;59069;52.242;20.900;2023-06-14T10:56:49;9.38;;;3.95;;
70675;SDS011;59069;52.242;20.900;2023-06-14T10:59:16;8.13;;;3.90;;
70675;SDS011;59069;52.242;20.900;2023-06-14T11:10:05;8.15;;;3.10;;
70675;SDS011;59069;52.242;20.900;2023-06-14T11:12:45;6.47;;;3.28;;
70675;SDS011;59069;52.242;20.900;2023-06-14T11:15:13;8.43;;;3.37;;
70675;SDS011;59069;52.242;20.900;2023-06-14T11:17:39;7.75;;;3.08;;
70675;SDS011;59069;52.242;20.900;2023-06-14T11:20:10;8.33;;;3.43;;
70675;SDS011;59069;52.242;20.900;2023-06-14T11:22:43;6.78;;;2.80;;
70675;SDS011;59069;52.242;20.900;2023-06-14T11:25:10;6.75;;;3.10;;
70675;SDS011;59069;52.242;20.900;2023-06-14T11:27:36;8.20;;;3.33;;
70675;SDS011;59069;52.242;20.900;2023-06-14T11:30:02;7.33;;;3.53;;
70675;SDS011;59069;52.242;20.900;2023-06-14T11:32:27;7.85;;;3.13;;
70675;SDS011;59069;52.242;20.900;2023-06-14T11:34:53;8.40;;;3.10;;
70675;SDS011;59069;52.242;20.900;2023-06-14T11:37:19;7.33;;;3.30;;
70675;SDS011;59069;52.242;20.900;2023-06-14T11:39:44;8.13;;;4.05;;
70675;SDS011;59069;52.242;20.900;2023-06-14T11:42:16;8.87;;;3.30;;
70675;SDS011;59069;52.242;20.900;2023-06-14T11:44:41;6.72;;;3.47;;
70675;SDS011;59069;52.242;20.900;2023-06-14T11:47:07;7.70;;;3.70;;
70675;SDS011;59069;52.242;20.900;2023-06-14T11:49:35;9.17;;;4.30;;
70675;SDS011;59069;52.242;20.900;2023-06-14T11:52:01;8.02;;;4.10;;
70675;SDS011;59069;52.242;20.900;2023-06-14T11:54:27;7.30;;;3.30;;
70675;SDS011;59069;52.242;20.900;2023-06-14T11:56:52;9.00;;;2.83;;
70675;SDS011;59069;52.242;20.900;2023-06-14T11:59:18;9.20;;;2.87;;
70675;SDS011;59069;52.242;20.900;2023-06-14T12:01:47;8.48;;;4.20;;
70675;SDS011;59069;52.242;20.900;2023-06-14T12:04:13;8.65;;;3.20;;
70675;SDS011;59069;52.242;20.900;2023-06-14T12:06:38;7.43;;;3.00;;
70675;SDS011;59069;52.242;20.900;2023-06-14T12:09:05;7.22;;;3.35;;
70675;SDS011;59069;52.242;20.900;2023-06-14T12:11:43;8.55;;;3.13;;
70675;SDS011;59069;52.242;20.900;2023-06-14T12:14:09;7.90;;;4.00;;
70675;SDS011;59069;52.242;20.900;2023-06-14T12:16:36;8.57;;;4.35;;
70675;SDS011;59069;52.242;20.900;2023-06-14T12:21:39;10.20;;;3.30;;
70675;SDS011;59069;52.242;20.900;2023-06-14T12:24:08;6.50;;;2.80;;
70675;SDS011;59069;52.242;20.900;2023-06-14T12:26:40;6.65;;;2.53;;
70675;SDS011;59069;52.242;20.900;2023-06-14T12:29:06;6.35;;;2.88;;
70675;SDS011;59069;52.242;20.900;2023-06-14T12:31:33;7.07;;;3.13;;
70675;SDS011;59069;52.242;20.900;2023-06-14T12:33:58;7.73;;;2.90;;
70675;SDS011;59069;52.242;20.900;2023-06-14T12:36:24;6.88;;;2.55;;
70675;SDS011;59069;52.242;20.900;2023-06-14T12:38:51;7.72;;;2.90;;
70675;SDS011;59069;52.242;20.900;2023-06-14T12:41:19;9.87;;;2.80;;
70675;SDS011;59069;52.242;20.900;2023-06-14T12:43:47;6.93;;;2.58;;
70675;SDS011;59069;52.242;20.900;2023-06-14T12:46:12;7.45;;;2.65;;
70675;SDS011;59069;52.242;20.900;2023-06-14T12:48:38;7.00;;;2.87;;
70675;SDS011;59069;52.242;20.900;2023-06-14T12:51:03;7.70;;;2.63;;
70675;SDS011;59069;52.242;20.900;2023-06-14T12:53:29;6.20;;;2.70;;
70675;SDS011;59069;52.242;20.900;2023-06-14T12:55:54;8.95;;;2.75;;
70675;SDS011;59069;52.242;20.900;2023-06-14T12:58:20;8.17;;;3.40;;
70675;SDS011;59069;52.242;20.900;2023-06-14T13:00:45;7.73;;;3.20;;
70675;SDS011;59069;52.242;20.900;2023-06-14T13:03:11;7.28;;;3.55;;
70675;SDS011;59069;52.242;20.900;2023-06-14T13:05:37;7.10;;;3.30;;
70675;SDS011;59069;52.242;20.900;2023-06-14T13:08:05;6.88;;;3.30;;
70675;SDS011;59069;52.242;20.900;2023-06-14T13:10:33;8.20;;;3.50;;
70675;SDS011;59069;52.242;20.900;2023-06-14T13:12:58;8.18;;;2.85;;
70675;SDS011;59069;52.242;20.900;2023-06-14T13:15:25;6.83;;;2.70;;
70675;SDS011;59069;52.242;20.900;2023-06-14T13:17:51;7.65;;;2.90;;
70675;SDS011;59069;52.242;20.900;2023-06-14T13:20:16;7.13;;;2.77;;
70675;SDS011;59069;52.242;20.900;2023-06-14T13:22:42;6.82;;;2.70;;
70675;SDS011;59069;52.242;20.900;2023-06-14T13:25:08;7.83;;;2.70;;
70675;SDS011;59069;52.242;20.900;2023-06-14T13:27:33;6.35;;;2.90;;
70675;SDS011;59069;52.242;20.900;2023-06-14T13:29:59;6.70;;;2.80;;
70675;SDS011;59069;52.242;20.900;2023-06-14T13:32:24;7.07;;;2.70;;
70675;SDS011;59069;52.242;20.900;2023-06-14T13:34:50;6.40;;;2.40;;
70675;SDS011;59069;52.242;20.900;2023-06-14T13:37:15;6.60;;;2.42;;
70675;SDS011;59069;52.242;20.900;2023-06-14T13:39:41;7.17;;;2.90;;
70675;SDS011;59069;52.242;20.900;2023-06-14T13:42:07;7.57;;;2.78;;
70675;SDS011;59069;52.242;20.900;2023-06-14T13:44:32;5.67;;;2.37;;
70675;SDS011;59069;52.242;20.900;2023-06-14T13:46:58;7.57;;;2.80;;
70675;SDS011;59069;52.242;20.900;2023-06-14T13:49:23;8.45;;;2.80;;
70675;SDS011;59069;52.242;20.900;2023-06-14T13:51:48;6.80;;;2.97;;
70675;SDS011;59069;52.242;20.900;2023-06-14T13:54:14;8.13;;;3.10;;
70675;SDS011;59069;52.242;20.900;2023-06-14T13:56:43;8.02;;;3.30;;
70675;SDS011;59069;52.242;20.900;2023-06-14T13:59:09;9.63;;;3.22;;
70675;SDS011;59069;52.242;20.900;2023-06-14T14:01:35;7.20;;;3.00;;
70675;SDS011;59069;52.242;20.900;2023-06-14T14:04:01;8.70;;;3.05;;
70675;SDS011;59069;52.242;20.900;2023-06-14T14:06:27;6.83;;;3.23;;
70675;SDS011;59069;52.242;20.900;2023-06-14T14:08:52;11.85;;;3.45;;
70675;SDS011;59069;52.242;20.900;2023-06-14T14:11:18;7.70;;;2.90;;
70675;SDS011;59069;52.242;20.900;2023-06-14T14:13:45;8.93;;;2.83;;
70675;SDS011;59069;52.242;20.900;2023-06-14T14:16:11;7.25;;;2.95;;
70675;SDS011;59069;52.242;20.900;2023-06-14T14:18:38;6.00;;;3.00;;
70675;SDS011;59069;52.242;20.900;2023-06-14T14:21:03;7.23;;;2.90;;
70675;SDS011;59069;52.242;20.900;2023-06-14T14:23:29;7.65;;;2.63;;
70675;SDS011;59069;52.242;20.900;2023-06-14T14:25:54;7.77;;;2.57;;
70675;SDS011;59069;52.242;20.900;2023-06-14T14:28:20;7.43;;;2.70;;
70675;SDS011;59069;52.242;20.900;2023-06-14T14:30:46;7.53;;;3.17;;
70675;SDS011;59069;52.242;20.900;2023-06-14T14:33:13;6.53;;;2.88;;
70675;SDS011;59069;52.242;20.900;2023-06-14T14:35:44;8.93;;;3.00;;
70675;SDS011;59069;52.242;20.900;2023-06-14T14:38:13;6.60;;;2.67;;
70675;SDS011;59069;52.242;20.900;2023-06-14T14:40:40;8.05;;;2.97;;
70675;SDS011;59069;52.242;20.900;2023-06-14T14:43:06;7.50;;;3.00;;
70675;SDS011;59069;52.242;20.900;2023-06-14T14:45:32;6.27;;;2.90;;
70675;SDS011;59069;52.242;20.900;2023-06-14T14:47:57;9.18;;;2.80;;
70675;SDS011;59069;52.242;20.900;2023-06-14T14:50:23;6.77;;;2.60;;
70675;SDS011;59069;52.242;20.900;2023-06-14T14:52:49;7.45;;;2.90;;